Terminal Aerodrome Forecast
Issued by NWS Sterling, VA

Current Version | Previous Version | Graphics & Text | Print | Product List | Glossary On
Versions: 1 2 3 4 5 6 7 8 9 10 11 12 13 14 15 16 17 18 19 20 21 22 23 24
179
FTUS41 KLWX 032342
TAFIAD
TAF
KIAD 032342Z 0400/0506 30010KT P6SM BKN040 BKN250
     FM040500 30005KT P6SM FEW040 BKN250
     FM042000 20004KT P6SM OVC130
     FM050300 16004KT 6SM -RA OVC050=

USA.gov is the U.S. government's official web portal to all federal, state and local government web resources and services.